Time;durP1;ratioP1;P1;durP2;ratioP2;P2;SDS_P1;SDS_P2;PMS_P1;PMS_P2;Temp;Humidity;BMP_temperature;BMP_pressure;BME280_temperature;BME280_humidity;BME280_pressure;Samples;Min_cycle;Max_cycle;Signal;HPM_P1;HPM_P2
2021/09/16 00:01:32;;;;;;;7.00;1.30;;;15.20;98.00;;;;;;5002412;28;20042;-56
2021/09/16 00:03:58;;;;;;;7.10;1.33;;;15.20;98.00;;;;;;4994413;28;20080;-54
2021/09/16 00:06:23;;;;;;;5.63;1.20;;;15.20;98.10;;;;;;4995620;28;20053;-56
2021/09/16 00:08:49;;;;;;;7.10;1.58;;;15.20;98.00;;;;;;5003586;28;20069;-55
2021/09/16 00:11:14;;;;;;;6.18;1.35;;;15.20;98.20;;;;;;4990162;28;20348;-55
2021/09/16 00:13:40;;;;;;;4.50;1.20;;;15.20;98.20;;;;;;4986531;28;20395;-55
2021/09/16 00:16:05;;;;;;;6.43;1.50;;;15.20;98.20;;;;;;5011139;28;20060;-55
2021/09/16 00:18:32;;;;;;;5.60;1.50;;;15.20;98.20;;;;;;5012982;28;20379;-55
2021/09/16 00:20:57;;;;;;;3.40;1.25;;;15.20;98.30;;;;;;4993998;28;20057;-53
2021/09/16 00:23:23;;;;;;;9.38;1.20;;;15.20;98.30;;;;;;5013102;28;20042;-55
2021/09/16 00:25:48;;;;;;;8.00;1.30;;;15.20;98.30;;;;;;4997839;28;20068;-54
2021/09/16 00:28:14;;;;;;;5.40;1.42;;;15.20;98.40;;;;;;5001974;28;20081;-55
2021/09/16 00:30:40;;;;;;;6.85;1.40;;;15.20;98.40;;;;;;4997664;28;20038;-53
2021/09/16 00:33:05;;;;;;;6.60;1.55;;;15.20;98.40;;;;;;4961749;28;20036;-53
2021/09/16 00:35:31;;;;;;;6.10;1.73;;;15.20;98.40;;;;;;4997437;28;20805;-55
2021/09/16 00:37:57;;;;;;;6.18;1.63;;;15.20;98.40;;;;;;4997610;28;20125;-55
2021/09/16 00:40:23;;;;;;;6.53;1.60;;;15.20;98.30;;;;;;5001247;28;20029;-56
2021/09/16 00:42:48;;;;;;;5.20;1.50;;;15.20;98.40;;;;;;4984083;28;20038;-55
2021/09/16 00:45:14;;;;;;;5.03;1.50;;;15.20;98.50;;;;;;5002442;28;20207;-55
2021/09/16 00:47:44;;;;;;;8.10;1.52;;;15.20;98.60;;;;;;4986159;28;20049;-55
2021/09/16 00:50:14;;;;;;;4.47;1.45;;;15.20;98.70;;;;;;4979827;28;20042;-54
2021/09/16 00:52:41;;;;;;;6.05;1.63;;;15.20;98.70;;;;;;4998191;28;20169;-55
2021/09/16 00:55:08;;;;;;;6.35;1.38;;;15.10;98.90;;;;;;5001968;28;20049;-54
2021/09/16 00:57:33;;;;;;;6.30;1.60;;;15.10;99.00;;;;;;4999661;28;20038;-54
2021/09/16 01:00:03;;;;;;;4.75;1.48;;;15.10;99.10;;;;;;5008432;28;20057;-54
2021/09/16 01:02:28;;;;;;;4.55;1.42;;;15.10;99.30;;;;;;5002993;28;20648;-54
2021/09/16 01:04:54;;;;;;;4.20;1.50;;;15.00;99.40;;;;;;5008632;28;20054;-51
2021/09/16 01:07:20;;;;;;;7.63;1.27;;;15.00;99.50;;;;;;5003112;28;20121;-52
2021/09/16 01:09:45;;;;;;;8.27;1.60;;;15.00;99.70;;;;;;5006741;28;20442;-54
2021/09/16 01:12:11;;;;;;;7.32;1.60;;;14.90;99.70;;;;;;4999282;28;20062;-54
2021/09/16 01:14:36;;;;;;;3.38;1.60;;;14.90;99.90;;;;;;5003261;28;20410;-53
2021/09/16 01:17:03;;;;;;;9.02;1.70;;;14.90;99.90;;;;;;5003050;28;20038;-54
2021/09/16 01:19:28;;;;;;;6.47;1.70;;;14.80;99.90;;;;;;5002085;28;20040;-54
2021/09/16 01:21:54;;;;;;;5.97;1.30;;;14.80;99.90;;;;;;4995188;28;20031;-54
2021/09/16 01:24:19;;;;;;;8.65;1.50;;;14.80;99.90;;;;;;4977946;28;20041;-54
2021/09/16 01:26:46;;;;;;;5.85;1.67;;;14.70;99.90;;;;;;5009348;28;20045;-55
2021/09/16 01:29:12;;;;;;;5.15;1.70;;;14.70;99.90;;;;;;5008800;28;20042;-56
2021/09/16 01:31:47;;;;;;;6.22;1.92;;;14.70;99.80;;;;;;5010886;28;20037;-55
2021/09/16 01:34:15;;;;;;;9.30;1.60;;;14.70;99.90;;;;;;4997134;28;20429;-53
2021/09/16 01:36:42;;;;;;;4.53;1.40;;;14.70;99.80;;;;;;4999890;28;20038;-54
2021/09/16 01:39:11;;;;;;;5.65;1.50;;;14.70;99.90;;;;;;5004663;28;20503;-54
2021/09/16 01:41:37;;;;;;;6.40;1.48;;;14.70;99.90;;;;;;5002465;28;20148;-54
2021/09/16 01:44:03;;;;;;;5.18;1.50;;;14.70;99.90;;;;;;5010468;28;20466;-53
2021/09/16 01:46:29;;;;;;;4.07;1.50;;;14.70;99.90;;;;;;4977801;28;20475;-53
2021/09/16 01:48:57;;;;;;;6.40;1.98;;;14.70;99.90;;;;;;4992810;28;20054;-54
2021/09/16 01:51:23;;;;;;;5.03;1.50;;;14.70;99.90;;;;;;5010627;28;20046;-53
2021/09/16 01:53:48;;;;;;;9.32;1.67;;;14.70;99.80;;;;;;5001880;28;20037;-51
2021/09/16 01:56:14;;;;;;;5.32;1.77;;;14.70;99.90;;;;;;4994012;28;20038;-54
2021/09/16 01:58:40;;;;;;;11.35;1.90;;;14.70;99.70;;;;;;4979811;28;20048;-55
2021/09/16 02:01:06;;;;;;;8.38;1.88;;;14.70;99.70;;;;;;4982902;28;20054;-56
2021/09/16 02:03:31;;;;;;;7.15;1.70;;;14.70;99.70;;;;;;4976698;28;20048;-54
2021/09/16 02:05:57;;;;;;;10.32;1.70;;;14.70;99.80;;;;;;4998138;28;20053;-56
2021/09/16 02:08:23;;;;;;;10.05;1.75;;;14.60;99.80;;;;;;4997583;28;20096;-54
2021/09/16 02:10:49;;;;;;;6.63;1.45;;;14.60;99.80;;;;;;4974989;28;20410;-55
2021/09/16 02:13:14;;;;;;;8.27;2.00;;;14.60;99.90;;;;;;4988685;28;20125;-55
2021/09/16 02:15:40;;;;;;;9.52;1.55;;;14.70;99.90;;;;;;4992690;28;20042;-54
2021/09/16 02:18:06;;;;;;;9.70;1.40;;;14.60;99.90;;;;;;5005755;28;20050;-56
2021/09/16 02:20:31;;;;;;;7.82;2.10;;;14.60;99.90;;;;;;4999615;28;20049;-56
2021/09/16 02:22:57;;;;;;;5.20;1.70;;;14.60;99.90;;;;;;5001931;28;20041;-54
2021/09/16 02:25:22;;;;;;;10.43;1.70;;;14.60;99.90;;;;;;5012041;28;20375;-56
2021/09/16 02:27:48;;;;;;;7.88;1.70;;;14.70;99.90;;;;;;5013163;28;20160;-54
2021/09/16 02:30:14;;;;;;;6.28;1.90;;;14.70;99.90;;;;;;4973549;28;20260;-54
2021/09/16 02:32:40;;;;;;;8.38;1.77;;;14.60;99.90;;;;;;5004063;28;20038;-54
2021/09/16 02:35:07;;;;;;;13.35;2.15;;;14.60;99.90;;;;;;5018190;28;20403;-54
2021/09/16 02:37:32;;;;;;;8.18;1.83;;;14.70;99.90;;;;;;4974094;28;20065;-53
2021/09/16 02:39:58;;;;;;;4.22;1.60;;;14.70;99.90;;;;;;4970469;28;20245;-54
2021/09/16 02:42:24;;;;;;;6.00;1.80;;;14.70;99.90;;;;;;4970886;28;20046;-54
2021/09/16 02:44:50;;;;;;;8.65;2.20;;;14.70;99.90;;;;;;4982754;28;20458;-55
2021/09/16 02:47:15;;;;;;;7.25;1.67;;;14.70;99.90;;;;;;5006208;28;20077;-53
2021/09/16 02:49:41;;;;;;;8.25;1.80;;;14.80;99.90;;;;;;5004383;28;20089;-54
2021/09/16 02:52:07;;;;;;;8.43;1.77;;;14.80;99.90;;;;;;5009016;28;20044;-55
2021/09/16 02:54:33;;;;;;;7.38;2.08;;;14.80;99.90;;;;;;5002896;28;20034;-54
2021/09/16 02:56:58;;;;;;;7.88;1.63;;;14.80;99.90;;;;;;5002977;28;20041;-53
2021/09/16 02:59:24;;;;;;;6.93;1.73;;;14.80;99.90;;;;;;5008533;28;20033;-53
2021/09/16 03:01:49;;;;;;;8.80;2.10;;;14.90;99.90;;;;;;4999334;28;20502;-55
2021/09/16 03:04:15;;;;;;;13.68;2.28;;;14.90;99.90;;;;;;5006134;28;20081;-55
2021/09/16 03:06:40;;;;;;;10.20;2.00;;;14.90;99.90;;;;;;5006852;28;20073;-55
2021/09/16 03:09:06;;;;;;;11.15;2.10;;;14.90;99.90;;;;;;5013245;28;20053;-55
2021/09/16 03:11:32;;;;;;;8.50;2.05;;;14.90;99.90;;;;;;4979963;28;20348;-55
2021/09/16 03:13:57;;;;;;;5.13;1.67;;;14.90;99.90;;;;;;4980581;28;20057;-55
2021/09/16 03:16:23;;;;;;;5.88;1.95;;;14.90;99.90;;;;;;5013901;28;20038;-55
2021/09/16 03:18:49;;;;;;;8.75;2.20;;;15.00;99.90;;;;;;5002403;28;20042;-55
2021/09/16 03:21:14;;;;;;;8.43;2.38;;;15.00;99.90;;;;;;5003046;28;20030;-55
2021/09/16 03:23:40;;;;;;;12.40;2.50;;;15.00;99.90;;;;;;5019961;28;20565;-55
2021/09/16 03:26:06;;;;;;;7.80;2.17;;;15.00;99.90;;;;;;5010514;28;20121;-54
2021/09/16 03:28:32;;;;;;;6.15;2.50;;;15.00;99.90;;;;;;4997737;28;20134;-55
2021/09/16 03:30:58;;;;;;;7.53;2.58;;;15.00;99.90;;;;;;4998502;28;20486;-55
2021/09/16 03:33:24;;;;;;;4.53;2.45;;;15.00;99.90;;;;;;4994994;28;20097;-55
2021/09/16 03:35:49;;;;;;;11.13;2.75;;;15.00;99.90;;;;;;5010719;28;20042;-55
2021/09/16 03:38:15;;;;;;;7.25;2.85;;;15.10;99.90;;;;;;5008770;28;20502;-55
2021/09/16 03:40:40;;;;;;;6.93;2.70;;;15.10;99.90;;;;;;5010354;28;20042;-53
2021/09/16 03:43:06;;;;;;;7.00;2.80;;;15.10;99.90;;;;;;5001782;28;20061;-61
2021/09/16 03:45:32;;;;;;;9.27;2.85;;;15.10;99.90;;;;;;5011553;28;20410;-55
2021/09/16 03:47:58;;;;;;;10.05;2.95;;;15.10;99.90;;;;;;5008524;28;20486;-55
2021/09/16 03:50:23;;;;;;;6.65;3.15;;;15.10;99.90;;;;;;5008608;28;20122;-55
2021/09/16 03:52:49;;;;;;;8.57;2.90;;;15.10;99.90;;;;;;5007851;28;20041;-54
2021/09/16 03:55:16;;;;;;;8.20;3.30;;;15.10;99.90;;;;;;4973900;28;20046;-53
2021/09/16 03:57:42;;;;;;;7.20;2.92;;;15.20;99.90;;;;;;5016743;28;20034;-53
2021/09/16 04:00:08;;;;;;;7.45;3.45;;;15.10;99.90;;;;;;5013520;28;20080;-55
2021/09/16 04:02:34;;;;;;;7.20;3.22;;;15.20;99.90;;;;;;5004978;28;20046;-54
2021/09/16 04:05:00;;;;;;;6.78;3.50;;;15.20;99.90;;;;;;5005926;28;20414;-53
2021/09/16 04:07:25;;;;;;;7.20;3.80;;;15.20;99.90;;;;;;5007698;28;20136;-55
2021/09/16 04:09:51;;;;;;;11.32;3.55;;;15.20;99.90;;;;;;5002484;28;20034;-55
2021/09/16 04:12:16;;;;;;;9.50;3.78;;;15.20;99.90;;;;;;5014020;28;20037;-54
2021/09/16 04:14:42;;;;;;;8.93;4.05;;;15.20;99.90;;;;;;4989472;28;20042;-55
2021/09/16 04:17:08;;;;;;;6.68;3.50;;;15.20;99.90;;;;;;4969337;28;20401;-53
2021/09/16 04:19:34;;;;;;;8.82;4.35;;;15.20;99.90;;;;;;4993609;28;20034;-55
2021/09/16 04:21:59;;;;;;;10.40;4.78;;;15.20;99.90;;;;;;5007544;28;20418;-55
2021/09/16 04:24:25;;;;;;;7.20;3.75;;;15.20;99.90;;;;;;4986438;28;20454;-54
2021/09/16 04:26:50;;;;;;;9.20;3.65;;;15.20;99.90;;;;;;4995014;28;20410;-54
2021/09/16 04:29:16;;;;;;;11.15;4.40;;;15.20;99.90;;;;;;5000837;28;20410;-52
2021/09/16 04:31:41;;;;;;;8.93;4.40;;;15.20;99.90;;;;;;5008431;28;20034;-54
2021/09/16 04:34:07;;;;;;;9.57;4.20;;;15.20;99.90;;;;;;5008373;28;20083;-55
2021/09/16 04:36:34;;;;;;;9.07;4.70;;;15.20;99.90;;;;;;5012204;28;20065;-55
2021/09/16 04:38:59;;;;;;;10.40;4.38;;;15.10;99.90;;;;;;4990966;28;20433;-55
2021/09/16 04:41:25;;;;;;;8.98;4.18;;;15.20;99.90;;;;;;5006622;28;20113;-54
2021/09/16 04:43:51;;;;;;;10.60;4.78;;;15.20;99.90;;;;;;5012954;28;20482;-55
2021/09/16 04:46:17;;;;;;;11.98;4.75;;;15.10;99.90;;;;;;5017175;28;20034;-55
2021/09/16 04:48:42;;;;;;;9.65;5.32;;;15.10;99.90;;;;;;4995707;28;20034;-55
2021/09/16 04:51:08;;;;;;;12.93;5.03;;;15.10;99.90;;;;;;5023129;28;20057;-55
2021/09/16 04:53:33;;;;;;;9.90;5.10;;;15.10;99.90;;;;;;4999222;28;20169;-54
2021/09/16 04:55:59;;;;;;;12.77;5.13;;;15.10;99.90;;;;;;5011474;28;20033;-55
2021/09/16 04:58:24;;;;;;;10.68;5.07;;;15.10;99.90;;;;;;4993928;28;20050;-54
2021/09/16 05:00:50;;;;;;;14.20;5.60;;;15.10;99.90;;;;;;4987639;28;20100;-53
2021/09/16 05:03:16;;;;;;;15.18;5.32;;;15.10;99.90;;;;;;4992924;28;20057;-52
2021/09/16 05:05:41;;;;;;;10.60;5.05;;;15.00;99.90;;;;;;5013468;28;20041;-55
2021/09/16 05:08:07;;;;;;;14.52;5.90;;;15.00;99.90;;;;;;5002428;28;20041;-53
2021/09/16 05:10:33;;;;;;;14.98;5.97;;;15.10;99.90;;;;;;4999747;28;20064;-55
2021/09/16 05:12:58;;;;;;;10.10;5.90;;;15.10;99.90;;;;;;5014353;28;20562;-55
2021/09/16 05:15:24;;;;;;;11.43;5.80;;;15.10;99.90;;;;;;4977174;28;20052;-53
2021/09/16 05:17:50;;;;;;;12.93;5.60;;;15.10;99.90;;;;;;5005216;28;20477;-51
2021/09/16 05:20:15;;;;;;;12.15;5.78;;;15.10;99.90;;;;;;5004019;28;21182;-52
2021/09/16 05:22:41;;;;;;;12.93;5.43;;;15.20;99.90;;;;;;5006662;28;20498;-54
2021/09/16 05:25:07;;;;;;;14.10;5.72;;;15.20;99.90;;;;;;5023318;28;20069;-54
2021/09/16 05:27:32;;;;;;;13.43;5.93;;;15.20;99.90;;;;;;4999942;28;20046;-54
2021/09/16 05:29:58;;;;;;;12.15;6.20;;;15.20;99.90;;;;;;5006878;28;20086;-51
2021/09/16 05:32:27;;;;;;;11.85;6.18;;;15.30;99.90;;;;;;4974757;28;20442;-51
2021/09/16 05:34:55;;;;;;;10.82;5.97;;;15.30;99.90;;;;;;4992410;28;20042;-54
2021/09/16 05:37:22;;;;;;;13.82;6.40;;;15.30;99.90;;;;;;4979414;28;20494;-55
2021/09/16 05:39:49;;;;;;;15.82;6.72;;;15.30;99.90;;;;;;5009105;28;20128;-53
2021/09/16 05:42:14;;;;;;;11.60;6.40;;;15.30;99.90;;;;;;4992522;28;20486;-52
2021/09/16 05:44:40;;;;;;;12.57;6.45;;;15.30;99.90;;;;;;5010261;28;20042;-54
2021/09/16 05:47:05;;;;;;;12.32;6.47;;;15.30;99.90;;;;;;5009707;28;20490;-54
2021/09/16 05:49:31;;;;;;;14.75;6.65;;;15.30;99.90;;;;;;5008735;28;20383;-53
2021/09/16 05:51:56;;;;;;;10.63;6.05;;;15.30;99.90;;;;;;5007157;28;20046;-52
2021/09/16 05:54:22;;;;;;;17.17;6.60;;;15.40;99.90;;;;;;5009719;28;20030;-53
2021/09/16 05:56:48;;;;;;;12.98;6.03;;;15.40;99.90;;;;;;4989883;28;20037;-54
2021/09/16 05:59:17;;;;;;;12.88;7.03;;;15.40;99.90;;;;;;5009564;28;20505;-55
2021/09/16 06:01:42;;;;;;;14.05;5.80;;;15.40;99.90;;;;;;4999673;28;20057;-51
2021/09/16 06:04:08;;;;;;;13.68;6.03;;;15.40;99.90;;;;;;4982248;28;20046;-54
2021/09/16 06:06:34;;;;;;;12.07;5.68;;;15.40;99.90;;;;;;5007554;28;20580;-54
2021/09/16 06:08:59;;;;;;;13.02;6.28;;;15.50;99.90;;;;;;4998033;28;20729;-55
2021/09/16 06:11:25;;;;;;;16.25;5.88;;;15.50;99.90;;;;;;5011289;28;20061;-52
2021/09/16 06:13:54;;;;;;;15.55;6.80;;;15.50;99.90;;;;;;4998562;28;20506;-53
2021/09/16 06:16:22;;;;;;;13.68;6.35;;;15.50;99.90;;;;;;4991637;28;20038;-54
2021/09/16 06:18:48;;;;;;;19.23;6.50;;;15.50;99.90;;;;;;4973164;28;20046;-54
2021/09/16 06:21:13;;;;;;;17.52;6.78;;;15.50;99.90;;;;;;4995446;28;20049;-52
2021/09/16 06:23:39;;;;;;;19.50;6.90;;;15.50;99.90;;;;;;4967545;28;20129;-53
2021/09/16 06:26:05;;;;;;;13.05;5.68;;;15.60;99.90;;;;;;4992216;28;20042;-53
2021/09/16 06:28:31;;;;;;;18.20;6.38;;;15.60;99.90;;;;;;5008525;28;20582;-54
2021/09/16 06:30:56;;;;;;;14.40;6.65;;;15.60;99.90;;;;;;4960765;28;20040;-54
2021/09/16 06:33:22;;;;;;;15.88;5.78;;;15.60;99.90;;;;;;5010089;28;20422;-54
2021/09/16 06:35:48;;;;;;;13.63;5.78;;;15.70;99.90;;;;;;5006092;28;20125;-53
2021/09/16 06:38:13;;;;;;;14.90;5.88;;;15.70;99.90;;;;;;5005530;28;20042;-53
2021/09/16 06:40:39;;;;;;;17.15;5.88;;;15.70;99.90;;;;;;4973598;28;20597;-54
2021/09/16 06:43:04;;;;;;;11.07;5.40;;;15.80;99.90;;;;;;5008426;28;20048;-55
2021/09/16 06:45:30;;;;;;;13.48;5.55;;;15.80;99.90;;;;;;5011826;28;20398;-54
2021/09/16 06:47:56;;;;;;;16.45;5.45;;;15.80;99.90;;;;;;5010424;28;20041;-54
2021/09/16 06:50:21;;;;;;;14.02;5.65;;;15.90;99.90;;;;;;5009404;28;20088;-53
2021/09/16 06:52:47;;;;;;;18.50;5.93;;;15.90;99.90;;;;;;5008233;28;20475;-55
2021/09/16 06:55:12;;;;;;;17.15;5.50;;;15.90;99.90;;;;;;4975744;28;20088;-55
2021/09/16 06:57:38;;;;;;;13.27;4.93;;;16.00;99.90;;;;;;5008732;28;20030;-54
2021/09/16 07:00:05;;;;;;;17.67;5.05;;;16.00;99.90;;;;;;4974078;28;20126;-52
2021/09/16 07:02:31;;;;;;;14.45;4.97;;;16.10;99.90;;;;;;5004004;28;20518;-54
2021/09/16 07:04:57;;;;;;;15.88;5.47;;;16.10;99.90;;;;;;4992785;28;20037;-56
2021/09/16 07:07:23;;;;;;;17.33;5.30;;;16.10;99.90;;;;;;5010360;28;20038;-55
2021/09/16 07:09:48;;;;;;;16.65;5.05;;;16.10;99.90;;;;;;5009165;28;20514;-54
2021/09/16 07:12:14;;;;;;;15.80;4.70;;;16.10;99.90;;;;;;5012241;28;20037;-53
2021/09/16 07:14:40;;;;;;;15.60;5.20;;;16.10;99.90;;;;;;5012036;28;20499;-53
2021/09/16 07:17:07;;;;;;;12.48;5.35;;;16.20;99.90;;;;;;5010708;28;20038;-53
2021/09/16 07:19:32;;;;;;;13.50;4.90;;;16.20;99.90;;;;;;5012822;28;20058;-54
2021/09/16 07:21:58;;;;;;;11.40;4.65;;;16.20;99.90;;;;;;5013985;28;20509;-55
2021/09/16 07:24:24;;;;;;;11.55;5.03;;;16.20;99.90;;;;;;4977688;28;20124;-55
2021/09/16 07:26:52;;;;;;;17.00;4.85;;;16.30;99.90;;;;;;5013340;28;20514;-55
2021/09/16 07:29:19;;;;;;;13.25;4.65;;;16.30;99.90;;;;;;5013520;28;20073;-53
2021/09/16 07:31:45;;;;;;;11.35;4.05;;;16.30;99.90;;;;;;4995594;28;20046;-54
2021/09/16 07:34:11;;;;;;;12.02;4.15;;;16.30;99.90;;;;;;5010720;28;20057;-54
2021/09/16 07:36:39;;;;;;;11.75;4.28;;;16.30;99.90;;;;;;5013872;28;20065;-52
2021/09/16 07:39:04;;;;;;;9.43;3.65;;;16.30;99.90;;;;;;4999445;28;20049;-53
2021/09/16 07:41:30;;;;;;;11.20;4.15;;;16.40;99.90;;;;;;5016390;28;20512;-53
2021/09/16 07:43:55;;;;;;;11.15;4.10;;;16.40;99.90;;;;;;5014192;28;20053;-57
2021/09/16 07:46:22;;;;;;;10.88;3.55;;;16.40;99.90;;;;;;4980664;28;20046;-53
2021/09/16 07:48:47;;;;;;;8.25;3.75;;;16.50;99.90;;;;;;4997647;28;20034;-54
2021/09/16 07:51:13;;;;;;;10.93;3.83;;;16.50;99.90;;;;;;5006617;28;20483;-56
2021/09/16 07:53:39;;;;;;;10.40;3.90;;;16.60;99.90;;;;;;4994680;28;20056;-56
2021/09/16 07:56:05;;;;;;;7.97;3.38;;;16.70;99.90;;;;;;4980662;28;20438;-56
2021/09/16 07:58:30;;;;;;;13.35;3.97;;;16.80;99.90;;;;;;5000417;28;20410;-55
2021/09/16 08:00:56;;;;;;;8.38;4.03;;;16.80;99.90;;;;;;5006077;28;20096;-55
2021/09/16 08:03:21;;;;;;;8.43;3.40;;;16.90;99.90;;;;;;5013275;28;20457;-53
2021/09/16 08:05:47;;;;;;;9.80;3.58;;;17.00;99.90;;;;;;4994047;28;20045;-53
2021/09/16 08:08:12;;;;;;;9.00;3.00;;;17.00;99.90;;;;;;5014877;28;20053;-56
2021/09/16 08:10:38;;;;;;;9.13;2.80;;;17.00;99.90;;;;;;5012461;28;20448;-52
2021/09/16 08:13:04;;;;;;;6.75;3.28;;;17.00;99.90;;;;;;5012168;28;20045;-53
2021/09/16 08:15:29;;;;;;;7.35;2.60;;;17.00;99.90;;;;;;5005443;28;20038;-53
2021/09/16 08:17:55;;;;;;;8.85;2.42;;;17.10;99.90;;;;;;5002062;28;20053;-53
2021/09/16 08:20:22;;;;;;;6.60;2.30;;;17.10;99.90;;;;;;4989565;28;20042;-53
2021/09/16 08:22:49;;;;;;;5.35;1.90;;;17.10;99.60;;;;;;4964586;28;20040;-54
2021/09/16 08:25:16;;;;;;;4.88;2.00;;;17.20;99.20;;;;;;4998043;28;20048;-55
2021/09/16 08:27:41;;;;;;;5.50;2.10;;;17.10;98.90;;;;;;5005010;28;20426;-54
2021/09/16 08:30:09;;;;;;;3.83;1.67;;;17.10;98.50;;;;;;5001617;28;20035;-56
2021/09/16 08:32:35;;;;;;;4.65;1.70;;;17.10;98.60;;;;;;5005824;28;20030;-54
2021/09/16 08:35:03;;;;;;;5.00;1.98;;;17.10;98.70;;;;;;4987278;28;20046;-57
2021/09/16 08:37:28;;;;;;;7.72;2.20;;;17.10;98.80;;;;;;5006657;28;20041;-54
2021/09/16 08:39:54;;;;;;;7.60;2.00;;;17.10;98.70;;;;;;5003242;28;20426;-53
2021/09/16 08:42:23;;;;;;;5.82;1.90;;;17.10;98.70;;;;;;5000770;28;20042;-53
2021/09/16 08:44:49;;;;;;;5.90;1.85;;;17.20;98.30;;;;;;5005787;28;20050;-53
2021/09/16 08:47:15;;;;;;;5.45;2.10;;;17.20;98.30;;;;;;5009305;28;20075;-53
2021/09/16 08:49:41;;;;;;;4.93;2.28;;;17.20;98.10;;;;;;4991125;28;20081;-53
2021/09/16 08:52:07;;;;;;;7.47;2.05;;;17.30;98.00;;;;;;5008136;28;20030;-54
2021/09/16 08:54:35;;;;;;;9.85;2.17;;;17.30;98.30;;;;;;5007710;28;20450;-56
2021/09/16 08:57:03;;;;;;;9.43;2.30;;;17.40;98.20;;;;;;4990356;28;20084;-53
2021/09/16 08:59:31;;;;;;;8.93;2.20;;;17.40;97.90;;;;;;5008988;28;20412;-53
2021/09/16 09:01:56;;;;;;;11.07;2.70;;;17.40;97.60;;;;;;5009590;28;20117;-56
2021/09/16 09:04:22;;;;;;;5.30;2.05;;;17.30;97.40;;;;;;5009432;28;20077;-52
2021/09/16 09:07:03;;;;;;;8.75;2.45;;;17.20;97.60;;;;;;4991691;28;20046;-53
2021/09/16 09:09:29;;;;;;;8.35;1.95;;;17.10;97.80;;;;;;5005846;28;20418;-51
2021/09/16 09:11:59;;;;;;;10.90;2.20;;;17.00;98.10;;;;;;5010786;28;20034;-50
2021/09/16 09:14:35;;;;;;;7.40;2.47;;;16.90;98.50;;;;;;4976852;28;20046;-53
2021/09/16 09:17:14;;;;;;;8.00;2.10;;;16.90;98.80;;;;;;5010818;28;20164;-51
2021/09/16 09:19:41;;;;;;;7.82;2.92;;;16.90;99.00;;;;;;4978181;28;20069;-53
2021/09/16 09:22:07;;;;;;;8.70;2.42;;;17.10;99.40;;;;;;5010137;28;20081;-51
2021/09/16 09:24:43;;;;;;;10.30;2.50;;;17.20;99.50;;;;;;5006222;28;20065;-54
2021/09/16 09:27:30;;;;;;;6.90;1.90;;;17.40;99.30;;;;;;4974430;28;20034;-54
2021/09/16 09:30:09;;;;;;;7.93;2.08;;;17.40;98.90;;;;;;5007195;28;20050;-51
2021/09/16 09:32:58;;;;;;;10.30;2.33;;;17.50;97.90;;;;;;5009304;28;20088;-55
2021/09/16 09:35:35;;;;;;;8.38;2.55;;;17.40;97.20;;;;;;5007248;28;20045;-50
2021/09/16 09:38:22;;;;;;;10.45;1.60;;;17.30;97.40;;;;;;5000956;28;20042;-54
2021/09/16 09:40:54;;;;;;;7.53;1.80;;;17.30;97.70;;;;;;5004439;28;20046;-52
2021/09/16 09:43:30;;;;;;;10.25;1.98;;;17.50;97.70;;;;;;5000361;28;20525;-51
2021/09/16 09:46:08;;;;;;;10.90;2.20;;;17.60;97.30;;;;;;5002372;28;20590;-54
2021/09/16 09:48:40;;;;;;;6.68;2.03;;;17.80;97.30;;;;;;5001766;28;20104;-55
2021/09/16 09:51:06;;;;;;;;;;;18.10;97.10;;;;;;4975622;28;20521;-51
2021/09/16 09:53:38;;;;;;;8.15;2.05;;;18.30;96.30;;;;;;5011816;28;20028;-50
2021/09/16 09:56:19;;;;;;;7.28;1.80;;;18.30;96.20;;;;;;4990417;28;20038;-51
2021/09/16 09:58:46;;;;;;;5.97;1.77;;;18.40;95.50;;;;;;4998424;28;20038;-54
2021/09/16 10:01:33;;;;;;;5.95;1.80;;;18.30;94.10;;;;;;4989668;28;20088;-53
2021/09/16 10:04:19;;;;;;;6.28;1.90;;;18.20;93.80;;;;;;5006091;28;20495;-54
2021/09/16 10:06:45;;;;;;;6.45;1.58;;;18.10;94.30;;;;;;4970709;28;20081;-56
2021/09/16 10:09:13;;;;;;;6.50;1.98;;;17.90;94.20;;;;;;5008858;28;20487;-53
2021/09/16 10:11:48;;;;;;;9.38;2.45;;;17.80;94.00;;;;;;5010638;28;20037;-53
2021/09/16 10:14:15;;;;;;;5.38;2.05;;;17.70;93.90;;;;;;5002826;28;20579;-56
2021/09/16 10:16:41;;;;;;;8.50;2.13;;;17.50;94.20;;;;;;4977100;28;20085;-57
2021/09/16 10:19:07;;;;;;;9.93;2.38;;;17.40;94.40;;;;;;4999576;28;20045;-58
2021/09/16 10:21:34;;;;;;;7.20;2.35;;;17.40;94.70;;;;;;4988018;28;20711;-55
2021/09/16 10:24:00;;;;;;;8.23;2.45;;;17.50;95.00;;;;;;5007051;28;20033;-54
2021/09/16 10:26:33;;;;;;;9.20;1.98;;;17.70;95.20;;;;;;5009985;28;20045;-53
2021/09/16 10:28:58;;;;;;;4.78;1.90;;;18.00;94.90;;;;;;4988244;28;20046;-51
2021/09/16 10:31:25;;;;;;;8.48;1.90;;;18.20;94.50;;;;;;5009199;28;20452;-53
2021/09/16 10:33:51;;;;;;;6.93;2.20;;;18.40;93.10;;;;;;5008703;28;20045;-50
2021/09/16 10:36:17;;;;;;;5.32;1.95;;;18.60;92.20;;;;;;4989783;28;20030;-51
2021/09/16 10:38:47;;;;;;;6.53;1.83;;;18.70;92.40;;;;;;5004351;28;20030;-53
2021/09/16 10:41:28;;;;;;;5.15;1.98;;;18.90;92.40;;;;;;5005179;28;20034;-57
2021/09/16 10:43:57;;;;;;;3.50;1.50;;;19.00;91.90;;;;;;4961490;28;20042;-54
2021/09/16 10:46:43;;;;;;;4.88;1.77;;;19.10;91.50;;;;;;5007913;28;20046;-53
2021/09/16 10:49:21;;;;;;;6.60;2.10;;;19.10;90.90;;;;;;5011923;28;20097;-52
2021/09/16 10:51:50;;;;;;;6.85;2.28;;;19.10;90.80;;;;;;5013678;28;20142;-50
2021/09/16 10:54:28;;;;;;;4.00;1.60;;;19.10;90.60;;;;;;5008600;28;20506;-54
2021/09/16 10:57:03;;;;;;;3.45;1.50;;;19.00;88.30;;;;;;5010801;28;20243;-55
2021/09/16 10:59:47;;;;;;;5.20;1.50;;;19.00;88.70;;;;;;5011345;28;20484;-54
2021/09/16 11:02:15;;;;;;;3.70;1.48;;;18.90;88.20;;;;;;5011690;28;20061;-57
2021/09/16 11:04:56;;;;;;;4.07;1.30;;;18.90;87.30;;;;;;5012378;28;20125;-57
2021/09/16 11:10:21;;;;;;;5.60;1.52;;;18.80;88.40;;;;;;5009336;28;20067;-58
2021/09/16 11:12:50;;;;;;;3.65;1.30;;;18.80;88.70;;;;;;5010269;28;20046;-57
2021/09/16 11:15:18;;;;;;;3.35;1.40;;;18.70;88.80;;;;;;5009292;28;20050;-57
2021/09/16 11:17:44;;;;;;;4.22;1.40;;;18.70;88.90;;;;;;5011701;28;20049;-57
2021/09/16 11:20:13;;;;;;;3.83;1.70;;;18.60;88.70;;;;;;5004920;28;20034;-57
2021/09/16 11:22:39;;;;;;;4.28;1.45;;;18.60;88.40;;;;;;5008217;28;20041;-57
2021/09/16 11:25:07;;;;;;;4.25;1.60;;;18.50;88.80;;;;;;5005932;28;20447;-55
2021/09/16 11:27:36;;;;;;;5.88;1.35;;;18.40;89.40;;;;;;5008238;28;20420;-57
2021/09/16 11:30:04;;;;;;;5.32;1.60;;;18.60;90.40;;;;;;4983300;28;20038;-56
2021/09/16 11:32:31;;;;;;;4.22;1.70;;;18.80;89.90;;;;;;4962892;28;20040;-56
2021/09/16 11:34:59;;;;;;;5.85;1.60;;;18.90;90.40;;;;;;5001221;28;20052;-54
2021/09/16 11:37:30;;;;;;;4.38;1.40;;;18.90;90.60;;;;;;5009603;28;20096;-56
2021/09/16 11:40:12;;;;;;;4.23;1.47;;;18.80;89.30;;;;;;5003032;28;20034;-57
2021/09/16 11:42:45;;;;;;;4.57;1.40;;;18.80;88.80;;;;;;5000674;28;20046;-57
2021/09/16 11:45:14;;;;;;;5.25;1.73;;;18.70;89.00;;;;;;5003255;28;20112;-57
2021/09/16 11:47:56;;;;;;;2.80;1.42;;;18.80;89.20;;;;;;4971855;28;20038;-56
2021/09/16 11:50:41;;;;;;;5.50;1.75;;;18.90;89.30;;;;;;5000671;28;20045;-57
2021/09/16 11:53:11;;;;;;;6.57;1.67;;;19.00;88.30;;;;;;5005760;28;20160;-56
2021/09/16 11:55:41;;;;;;;4.45;1.63;;;19.10;88.40;;;;;;4967039;28;20399;-57
2021/09/16 11:58:29;;;;;;;4.63;1.42;;;19.20;88.60;;;;;;5000593;28;20045;-54
2021/09/16 12:01:01;;;;;;;4.72;1.50;;;19.40;88.90;;;;;;4975127;28;20050;-58
2021/09/16 12:03:35;;;;;;;8.38;1.75;;;19.50;87.20;;;;;;5006487;28;20042;-58
2021/09/16 12:06:09;;;;;;;3.42;1.30;;;19.50;85.80;;;;;;5008872;28;20046;-58
2021/09/16 12:08:47;;;;;;;4.07;1.30;;;19.60;85.40;;;;;;5007785;28;20030;-57
2021/09/16 12:11:16;;;;;;;3.53;1.55;;;19.60;85.20;;;;;;5009839;28;20030;-56
2021/09/16 12:13:47;;;;;;;4.60;1.40;;;19.50;84.60;;;;;;5011714;28;20084;-56
2021/09/16 12:16:16;;;;;;;4.93;1.40;;;19.50;86.00;;;;;;5009381;28;20034;-57
2021/09/16 12:18:44;;;;;;;3.88;1.52;;;19.40;85.80;;;;;;5008980;28;20066;-57
2021/09/16 12:21:20;;;;;;;6.25;1.63;;;19.40;86.20;;;;;;5008380;28;20131;-57
2021/09/16 12:23:51;;;;;;;2.03;1.30;;;19.60;87.00;;;;;;5010505;28;20038;-57
2021/09/16 12:26:21;;;;;;;3.35;1.30;;;19.70;85.10;;;;;;5010140;28;20065;-56
2021/09/16 12:28:53;;;;;;;3.70;1.38;;;19.60;84.30;;;;;;4991461;28;20606;-56
2021/09/16 12:31:34;;;;;;;3.72;1.33;;;19.50;83.90;;;;;;5008730;28;20511;-56
2021/09/16 12:34:09;;;;;;;2.05;1.30;;;19.50;83.60;;;;;;4974553;28;20037;-57
2021/09/16 12:36:37;;;;;;;5.57;1.58;;;19.70;84.00;;;;;;5005514;28;20529;-57
2021/09/16 12:39:10;;;;;;;6.63;1.42;;;19.90;83.70;;;;;;5005151;28;20160;-56
2021/09/16 12:41:43;;;;;;;7.10;1.60;;;19.80;82.60;;;;;;5002988;28;20042;-57
2021/09/16 12:44:13;;;;;;;3.58;1.77;;;19.80;82.60;;;;;;4966195;28;20516;-57
2021/09/16 12:46:41;;;;;;;2.80;1.27;;;19.70;83.90;;;;;;4999065;28;20035;-57
2021/09/16 12:49:07;;;;;;;4.53;1.90;;;19.50;83.00;;;;;;4968467;28;20462;-57